Aeroporto :
LOGIN :

Iscrizione | Disclaimer

   EN    FR    IT 

 










Sommario :    VFR   VFR Marginale   IFR   IFR Intensivo   IFR Molto Intensivo
Visibilità : 
Base nubi : 
>= 8 km
>= 3000ft
5 / 8 km
1000 / 3000 ft
1500m / 5 km
500 / 1000 ft
800 / 1500m
200 / 500 ft
< 800m
< 200 ft
Simboli :   Temporali  Nebbia  Neve Forte  Precipitazioni Forti  Vento > 20 kt
SIGMETs :   Varie  Temporali  Ghiacco  Turbolenza  Onda orograficha  Ceneri Vulcaniche






- Altitudine del aeroporto : 239 ft
- Codice IATA : VRN


LIPX - Villafranca Int. Verona

ULTIMO METAR :
  • 131950Z VRB02KT 5000 BR FEW050 14/13 Q1023

METARs OBSOLETI :
  • 131920Z 33004KT 5000 BR FEW050 14/13 Q1023
  • 131850Z VRB04KT 5000 BR FEW050 15/13 Q1023
  • 131820Z 23003KT 5000 BR SCT050 15/13 Q1023
  • 131750Z 23002KT 5000 BR FEW060 16/13 Q1023
  • 131720Z VRB01KT 4000 BR FEW050 16/13 Q1023

TAF TAF LIPX
Valido dal 13 a 18 ore il 14 a 03 ore UTC


131700Z 1318/1403 VRB05KT 4000 BR BKN050



MetMap, La meteo Aeronautica in un colpo d'occhio ! - Copyright ORBIFLY Dicembre 2007 - Disclaimer

ORBIFLY MET'MAP TEAM :

Programmazione e sviluppo : Alexandra Zaïnal
Concezione e sviluppo : Baudouin d'Aumeries
Co-Programmazione e sviluppo : Marc-Olivier Méhu
Supporto tecnico e logistico : Manuel Goepfert
Aiuto per la traduzione : Arnaldo La Scala

Contatto : metmap@orbifly.com




FONTI E CREDITI :

   NOAA